Terminal Aerodrome Forecast
Issued by NWS Charleston, WV

Current Version | Previous Version | Graphics & Text | Print | Product List | Glossary On
Versions: 1 2 3 4 5 6 7 8 9 10 11 12 13 14 15 16 17 18 19 20 21 22 23 24
000
FTUS41 KRLX 120308 AAA
TAFPKB
TAF AMD
KPKB 120308Z 1203/1224 15004KT P6SM BKN140
     FM120500 20008KT P6SM BKN080
     FM120800 24010KT P6SM OVC035
     FM121000 24011G17KT 6SM -SHSN OVC030
     FM121200 27011G17KT 6SM -SHSN OVC015
     FM121400 29013G24KT 6SM -SHSN BKN015
     FM121900 29014G26KT P6SM -SHSN BKN030=

USA.gov is the U.S. government's official web portal to all federal, state and local government web resources and services.